createdAt,value
2018-03-26T00:00:57.487Z,7.46
2018-03-26T00:03:31.090Z,7.41
2018-03-26T00:06:04.762Z,7.40
2018-03-26T00:08:38.445Z,7.35
2018-03-26T00:11:12.145Z,7.30
2018-03-26T00:13:45.854Z,7.21
2018-03-26T00:16:19.483Z,7.14
2018-03-26T00:18:53.096Z,7.05
2018-03-26T00:21:26.698Z,6.95
2018-03-26T00:24:00.286Z,6.87
2018-03-26T00:26:33.826Z,6.79
2018-03-26T00:29:07.411Z,6.73
2018-03-26T00:31:40.987Z,6.62
2018-03-26T00:34:14.597Z,6.54
2018-03-26T00:36:48.276Z,6.48
2018-03-26T00:39:22.075Z,6.36
2018-03-26T00:41:55.768Z,6.22
2018-03-26T00:44:29.502Z,6.08
2018-03-26T00:47:03.094Z,5.96
2018-03-26T00:49:36.726Z,5.86
2018-03-26T00:52:10.322Z,5.80
2018-03-26T00:54:44.037Z,5.78
2018-03-26T00:57:17.611Z,5.76
2018-03-26T00:59:51.206Z,5.82
2018-03-26T01:02:24.718Z,5.86
2018-03-26T01:04:58.302Z,5.87
2018-03-26T01:07:31.929Z,5.89
2018-03-26T01:10:05.531Z,5.97
2018-03-26T01:12:39.146Z,6.10
2018-03-26T01:15:12.894Z,6.08
2018-03-26T01:17:46.595Z,6.11
2018-03-26T01:20:20.233Z,6.14
2018-03-26T01:22:53.755Z,6.10
2018-03-26T01:25:27.384Z,6.12
2018-03-26T01:28:00.950Z,6.19
2018-03-26T01:30:34.562Z,6.16
2018-03-26T01:33:08.129Z,6.12
2018-03-26T01:35:41.806Z,6.07
2018-03-26T01:38:15.467Z,6.01
2018-03-26T01:40:49.065Z,5.96
2018-03-26T01:43:22.619Z,5.94
2018-03-26T01:45:56.324Z,5.94
2018-03-26T01:48:30.090Z,5.93
2018-03-26T01:51:03.613Z,5.91
2018-03-26T01:53:37.218Z,5.86
2018-03-26T01:56:10.855Z,5.82
2018-03-26T01:58:44.487Z,5.83
2018-03-26T02:01:18.299Z,5.81
2018-03-26T02:03:51.875Z,5.79
2018-03-26T02:06:25.604Z,5.80
2018-03-26T02:08:59.175Z,5.83
2018-03-26T02:11:32.813Z,5.85
2018-03-26T02:14:06.522Z,5.85
2018-03-26T02:16:40.054Z,5.83
2018-03-26T02:19:13.725Z,5.79
2018-03-26T02:21:47.255Z,5.74
2018-03-26T02:24:20.831Z,5.68
2018-03-26T02:30:12.811Z,5.63
2018-03-26T02:32:46.447Z,5.58
2018-03-26T02:35:20.034Z,5.55
2018-03-26T02:37:53.683Z,5.47
2018-03-26T02:40:27.233Z,5.46
2018-03-26T02:43:00.867Z,5.49
2018-03-26T02:45:34.492Z,5.49
2018-03-26T02:48:08.106Z,5.48
2018-03-26T02:50:41.795Z,5.43
2018-03-26T02:53:15.405Z,5.45
2018-03-26T02:55:49.048Z,5.51
2018-03-26T02:58:22.662Z,5.51
2018-03-26T03:00:56.295Z,5.53
2018-03-26T03:03:29.947Z,5.53
2018-03-26T03:06:03.490Z,5.53
2018-03-26T03:08:37.201Z,5.56
2018-03-26T03:11:10.790Z,5.51
2018-03-26T03:13:44.407Z,5.53
2018-03-26T03:16:18.015Z,5.48
2018-03-26T03:18:51.648Z,5.43
2018-03-26T03:21:25.466Z,5.45
2018-03-26T03:23:59.107Z,5.44
2018-03-26T03:26:32.788Z,5.47
2018-03-26T03:29:06.563Z,5.47
2018-03-26T03:31:40.117Z,5.47
2018-03-26T03:34:13.910Z,5.47
2018-03-26T03:36:48.410Z,5.51
2018-03-26T03:39:22.222Z,5.53
2018-03-26T03:41:55.906Z,5.52
2018-03-26T03:44:29.592Z,5.51
2018-03-26T03:47:03.150Z,5.52
2018-03-26T03:49:36.691Z,5.54
2018-03-26T03:52:10.337Z,5.59
2018-03-26T03:54:43.919Z,5.58
2018-03-26T03:57:17.551Z,5.55
2018-03-26T03:59:51.328Z,5.57
2018-03-26T04:02:24.966Z,5.59
2018-03-26T04:04:58.534Z,5.58
2018-03-26T04:07:32.214Z,5.54
2018-03-26T04:10:05.822Z,5.48
2018-03-26T04:12:39.514Z,5.48
2018-03-26T04:15:13.158Z,5.48
2018-03-26T04:17:46.818Z,5.54
2018-03-26T04:20:20.394Z,5.45
2018-03-26T04:22:54.066Z,5.46
2018-03-26T04:25:27.794Z,5.36
2018-03-26T04:28:01.322Z,5.35
2018-03-26T04:30:34.978Z,5.36
2018-03-26T04:33:08.606Z,5.38
2018-03-26T04:35:42.354Z,5.37
2018-03-26T04:38:15.908Z,5.39
2018-03-26T04:40:49.574Z,5.37
2018-03-26T04:43:23.337Z,5.30
2018-03-26T04:45:56.854Z,5.20
2018-03-26T04:48:30.451Z,5.19
2018-03-26T04:51:04.038Z,5.14
2018-03-26T04:53:37.638Z,5.10
2018-03-26T04:56:11.466Z,5.00
2018-03-26T04:58:45.147Z,4.93
2018-03-26T05:01:18.749Z,4.89
2018-03-26T05:03:52.398Z,4.84
2018-03-26T05:06:26.115Z,4.77
2018-03-26T05:08:59.818Z,4.65
2018-03-26T05:11:33.590Z,4.58
2018-03-26T05:14:07.307Z,4.51
2018-03-26T05:16:41.029Z,4.41
2018-03-26T05:19:14.666Z,4.33
2018-03-26T05:21:48.238Z,4.28
2018-03-26T05:24:22.039Z,4.20
2018-03-26T05:29:55.466Z,4.08
2018-03-26T05:32:29.158Z,4.08
2018-03-26T05:35:02.767Z,4.04
2018-03-26T05:37:36.373Z,4.00
2018-03-26T05:40:10.122Z,3.96
2018-03-26T05:42:43.731Z,3.88
2018-03-26T05:45:17.366Z,3.85
2018-03-26T05:47:51.098Z,3.82
2018-03-26T05:50:24.783Z,3.82
2018-03-26T05:52:58.482Z,3.82
2018-03-26T05:55:32.128Z,3.84
2018-03-26T05:58:05.670Z,3.89
2018-03-26T06:00:39.490Z,3.95
2018-03-26T06:03:13.108Z,4.03
2018-03-26T06:05:46.786Z,4.15
2018-03-26T06:08:20.385Z,4.31
2018-03-26T06:10:53.980Z,4.42
2018-03-26T06:13:27.518Z,4.48
2018-03-26T06:16:01.252Z,4.61
2018-03-26T06:18:34.930Z,4.70
2018-03-26T06:21:08.622Z,4.78
2018-03-26T06:23:42.310Z,4.91
2018-03-26T06:26:15.976Z,4.98
2018-03-26T06:28:49.522Z,5.11
2018-03-26T06:31:23.078Z,5.26
2018-03-26T06:33:56.691Z,5.50
2018-03-26T06:36:36.234Z,5.61
2018-03-26T06:39:26.707Z,5.63
2018-03-26T06:42:00.302Z,5.82
2018-03-26T06:44:33.963Z,5.83
2018-03-26T06:47:17.838Z,5.83
2018-03-26T06:49:51.627Z,5.87
2018-03-26T06:52:25.214Z,5.83
2018-03-26T06:54:58.840Z,5.85
2018-03-26T06:57:32.514Z,5.90
2018-03-26T07:00:06.353Z,6.02
2018-03-26T07:02:39.952Z,6.39
2018-03-26T07:05:13.474Z,7.00
2018-03-26T07:07:47.177Z,7.56
2018-03-26T07:10:20.987Z,7.86
2018-03-26T07:12:54.681Z,7.85
2018-03-26T07:15:28.307Z,7.82
2018-03-26T07:18:02.105Z,7.95
2018-03-26T07:20:35.742Z,8.19
2018-03-26T07:23:09.386Z,8.46
2018-03-26T07:25:43.207Z,8.05
2018-03-26T07:28:17.017Z,7.80
2018-03-26T07:30:50.787Z,7.60
2018-03-26T07:33:24.489Z,7.09
2018-03-26T07:35:58.324Z,7.41
2018-03-26T07:38:32.012Z,8.49
2018-03-26T07:41:05.794Z,9.09
2018-03-26T07:43:39.330Z,9.14
2018-03-26T07:46:12.974Z,9.43
2018-03-26T07:48:46.783Z,10.07
2018-03-26T07:51:20.571Z,11.22
2018-03-26T07:53:54.194Z,12.03
2018-03-26T07:56:27.827Z,12.60
2018-03-26T07:59:01.400Z,12.31
2018-03-26T08:01:35.042Z,11.98
2018-03-26T08:04:08.662Z,11.05
2018-03-26T08:06:42.421Z,10.68
2018-03-26T08:09:16.135Z,10.61
2018-03-26T08:11:50.175Z,10.20
2018-03-26T08:14:23.774Z,10.00
2018-03-26T08:16:57.395Z,9.56
2018-03-26T08:19:31.046Z,9.35
2018-03-26T08:22:04.575Z,9.17
2018-03-26T08:24:38.233Z,8.93
2018-03-26T08:27:11.860Z,8.58
2018-03-26T08:29:45.643Z,8.55
2018-03-26T08:32:19.411Z,8.77
2018-03-26T08:34:53.139Z,9.09
2018-03-26T08:37:26.764Z,8.85
2018-03-26T08:40:00.629Z,8.68
2018-03-26T08:42:34.370Z,8.40
2018-03-26T08:45:08.182Z,8.46
2018-03-26T08:47:41.692Z,8.56
2018-03-26T08:50:15.352Z,8.41
2018-03-26T08:52:48.952Z,8.63
2018-03-26T08:55:22.538Z,8.86
2018-03-26T08:57:56.171Z,8.95
2018-03-26T09:00:29.793Z,8.85
2018-03-26T09:03:03.573Z,9.74
2018-03-26T09:05:37.143Z,11.45
2018-03-26T09:08:10.966Z,12.83
2018-03-26T09:10:44.719Z,13.38
2018-03-26T09:13:18.492Z,13.12
2018-03-26T09:15:52.087Z,13.77
2018-03-26T09:18:25.775Z,13.31
2018-03-26T09:20:59.669Z,12.33
2018-03-26T09:23:33.318Z,11.51
2018-03-26T09:26:07.020Z,12.60
2018-03-26T09:28:40.656Z,13.38
2018-03-26T09:31:14.455Z,13.95
2018-03-26T09:33:48.087Z,13.54
2018-03-26T09:36:21.777Z,13.60
2018-03-26T09:38:55.378Z,13.82
2018-03-26T09:41:28.922Z,12.99
2018-03-26T09:44:02.474Z,13.36
2018-03-26T09:46:36.088Z,12.31
2018-03-26T09:49:09.871Z,11.39
2018-03-26T09:51:43.494Z,10.65
2018-03-26T09:54:17.223Z,10.63
2018-03-26T09:56:50.982Z,10.06
2018-03-26T09:59:24.730Z,10.45
2018-03-26T10:01:58.415Z,10.54
2018-03-26T10:04:32.148Z,10.75
2018-03-26T10:07:05.754Z,9.93
2018-03-26T10:09:39.398Z,9.81
2018-03-26T10:12:13.200Z,9.96
2018-03-26T10:14:47.165Z,10.55
2018-03-26T10:17:20.923Z,10.48
2018-03-26T10:19:54.688Z,10.36
2018-03-26T10:22:28.463Z,10.41
2018-03-26T10:25:02.843Z,10.56
2018-03-26T10:27:36.475Z,10.92
2018-03-26T10:30:10.221Z,10.81
2018-03-26T10:32:44.048Z,11.02
2018-03-26T10:35:17.662Z,11.48
2018-03-26T10:37:51.346Z,10.94
2018-03-26T10:40:25.085Z,10.95
2018-03-26T10:42:58.782Z,11.21
2018-03-26T10:45:32.406Z,11.60
2018-03-26T10:48:05.938Z,11.48
2018-03-26T10:50:39.682Z,11.65
2018-03-26T10:53:13.394Z,12.00
2018-03-26T10:55:47.178Z,11.54
2018-03-26T10:58:20.888Z,11.43
2018-03-26T11:00:54.582Z,11.56
2018-03-26T11:03:28.190Z,12.18
2018-03-26T11:06:01.846Z,12.89
2018-03-26T11:08:35.517Z,14.82
2018-03-26T11:11:09.272Z,14.46
2018-03-26T11:13:42.907Z,13.59
2018-03-26T11:16:16.859Z,12.83
2018-03-26T11:18:50.699Z,11.81
2018-03-26T11:21:24.431Z,11.00
2018-03-26T11:23:58.201Z,10.87
2018-03-26T11:26:31.917Z,11.41
2018-03-26T11:29:05.640Z,11.47
2018-03-26T11:31:39.317Z,11.41
2018-03-26T11:34:12.984Z,11.19
2018-03-26T11:36:46.764Z,10.89
2018-03-26T11:39:20.493Z,10.48
2018-03-26T11:41:54.284Z,10.52
2018-03-26T11:44:28.014Z,10.55
2018-03-26T11:47:01.691Z,10.21
2018-03-26T11:49:35.512Z,9.98
2018-03-26T11:52:09.303Z,10.40
2018-03-26T11:54:42.887Z,10.78
2018-03-26T11:57:16.592Z,10.46
2018-03-26T11:59:50.263Z,10.74
2018-03-26T12:02:23.974Z,10.76
2018-03-26T12:04:57.662Z,10.86
2018-03-26T12:07:31.351Z,11.11
2018-03-26T12:10:05.098Z,11.38
2018-03-26T12:12:38.835Z,11.41
2018-03-26T12:15:12.515Z,11.59
2018-03-26T12:17:46.250Z,11.57
2018-03-26T12:20:31.780Z,11.30
2018-03-26T12:23:17.375Z,10.95
2018-03-26T12:26:04.089Z,10.60
2018-03-26T12:28:49.795Z,10.41
2018-03-26T12:31:23.474Z,10.41
2018-03-26T12:34:09.024Z,10.68
2018-03-26T12:36:42.686Z,10.63
2018-03-26T12:39:16.391Z,11.03
2018-03-26T12:41:50.350Z,10.94
2018-03-26T12:44:36.022Z,10.39
2018-03-26T12:47:09.730Z,10.22
2018-03-26T12:49:43.312Z,10.01
2018-03-26T12:52:28.832Z,10.04
2018-03-26T12:55:02.611Z,10.22
2018-03-26T12:57:48.331Z,10.58
2018-03-26T13:00:22.041Z,10.81
2018-03-26T13:02:55.572Z,10.69
2018-03-26T13:05:29.430Z,10.69
2018-03-26T13:08:03.378Z,10.94
2018-03-26T13:10:37.127Z,11.02
2018-03-26T13:13:10.763Z,10.89
2018-03-26T13:15:44.587Z,10.49
2018-03-26T13:18:18.372Z,10.54
2018-03-26T13:20:52.134Z,10.73
2018-03-26T13:23:25.865Z,10.68
2018-03-26T13:25:59.764Z,10.56
2018-03-26T13:28:33.418Z,10.31
2018-03-26T13:31:07.043Z,10.47
2018-03-26T13:33:40.782Z,10.62
2018-03-26T13:36:14.458Z,10.71
2018-03-26T13:38:48.018Z,10.84
2018-03-26T13:41:21.785Z,10.98
2018-03-26T13:43:55.479Z,11.19
2018-03-26T13:46:34.384Z,11.08
2018-03-26T13:49:08.050Z,11.08
2018-03-26T13:51:41.830Z,11.07
2018-03-26T13:54:15.518Z,10.98
2018-03-26T13:56:49.313Z,10.90
2018-03-26T13:59:23.051Z,10.92
2018-03-26T14:01:56.674Z,10.97
2018-03-26T14:04:30.235Z,11.03
2018-03-26T14:07:03.830Z,10.95
2018-03-26T14:12:49.677Z,11.15
2018-03-26T14:15:35.338Z,11.09
2018-03-26T14:18:09.086Z,11.20
2018-03-26T14:20:42.697Z,11.17
2018-03-26T14:23:16.285Z,10.91
2018-03-26T14:25:50.032Z,10.77
2018-03-26T14:28:23.549Z,10.70
2018-03-26T14:30:57.153Z,10.62
2018-03-26T14:33:30.739Z,10.89
2018-03-26T14:36:04.337Z,11.19
2018-03-26T14:38:37.846Z,13.01
2018-03-26T14:41:11.797Z,14.16
2018-03-26T14:43:45.405Z,15.19
2018-03-26T14:46:19.044Z,15.52
2018-03-26T14:48:52.605Z,16.28
2018-03-26T14:51:26.249Z,16.23
2018-03-26T14:53:59.922Z,13.93
2018-03-26T14:56:33.477Z,12.51
2018-03-26T14:59:07.249Z,11.74
2018-03-26T15:01:40.790Z,12.34
2018-03-26T15:04:14.517Z,11.66
2018-03-26T15:06:48.278Z,11.45
2018-03-26T15:09:21.845Z,10.99
2018-03-26T15:11:55.369Z,10.70
2018-03-26T15:14:28.999Z,10.57
2018-03-26T15:17:16.896Z,10.44
2018-03-26T15:19:50.654Z,10.42
2018-03-26T15:22:24.402Z,10.43
2018-03-26T15:24:57.910Z,11.79
2018-03-26T15:27:31.587Z,13.56
2018-03-26T15:30:05.209Z,14.42
2018-03-26T15:32:38.878Z,14.46
2018-03-26T15:35:12.443Z,14.10
2018-03-26T15:37:46.241Z,13.15
2018-03-26T15:40:19.802Z,12.43
2018-03-26T15:42:53.293Z,11.68
2018-03-26T15:45:27.074Z,11.22
2018-03-26T15:48:00.726Z,10.74
2018-03-26T15:50:34.529Z,10.38
2018-03-26T15:53:08.343Z,10.13
2018-03-26T15:55:42.002Z,9.97
2018-03-26T15:58:15.637Z,9.93
2018-03-26T16:00:49.763Z,9.86
2018-03-26T16:03:29.113Z,9.71
2018-03-26T16:06:02.782Z,9.42
2018-03-26T16:08:36.566Z,9.38
2018-03-26T16:11:10.147Z,9.33
2018-03-26T16:13:43.745Z,9.36
2018-03-26T16:16:17.422Z,9.37
2018-03-26T16:18:51.077Z,9.82
2018-03-26T16:21:24.765Z,9.91
2018-03-26T16:23:58.375Z,9.79
2018-03-26T16:26:32.021Z,9.77
2018-03-26T16:29:05.671Z,9.70
2018-03-26T16:31:39.233Z,9.61
2018-03-26T16:34:12.770Z,9.48
2018-03-26T16:36:46.401Z,9.33
2018-03-26T16:39:20.096Z,9.20
2018-03-26T16:41:53.750Z,9.05
2018-03-26T16:44:27.392Z,8.97
2018-03-26T16:47:00.968Z,8.86
2018-03-26T16:49:34.509Z,8.89
2018-03-26T16:52:08.152Z,8.81
2018-03-26T16:54:41.730Z,8.82
2018-03-26T16:57:15.396Z,8.76
2018-03-26T16:59:48.977Z,8.83
2018-03-26T17:02:22.689Z,8.84
2018-03-26T17:04:56.457Z,8.87
2018-03-26T17:07:30.089Z,8.85
2018-03-26T17:10:03.639Z,8.76
2018-03-26T17:12:37.209Z,8.66
2018-03-26T17:15:10.953Z,8.56
2018-03-26T17:17:44.617Z,8.51
2018-03-26T17:20:18.190Z,8.47
2018-03-26T17:22:51.752Z,8.37
2018-03-26T17:25:25.287Z,8.37
2018-03-26T17:27:58.805Z,8.24
2018-03-26T17:30:32.318Z,8.16
2018-03-26T17:33:05.910Z,8.08
2018-03-26T17:35:39.474Z,8.02
2018-03-26T17:38:12.944Z,7.98
2018-03-26T17:40:46.609Z,7.97
2018-03-26T17:43:20.302Z,7.93
2018-03-26T17:45:53.853Z,7.92
2018-03-26T17:48:27.679Z,7.86
2018-03-26T17:51:01.338Z,7.81
2018-03-26T17:53:34.874Z,7.76
2018-03-26T17:56:08.490Z,7.72
2018-03-26T17:58:42.153Z,7.75
2018-03-26T18:01:15.792Z,7.88
2018-03-26T18:03:49.265Z,7.98
2018-03-26T18:06:22.946Z,8.05
2018-03-26T18:08:56.511Z,7.99
2018-03-26T18:11:30.130Z,7.91
2018-03-26T18:14:03.681Z,7.80
2018-03-26T18:16:37.330Z,7.73
2018-03-26T18:19:10.986Z,7.61
2018-03-26T18:21:44.813Z,7.54
2018-03-26T18:24:18.437Z,7.44
2018-03-26T18:26:52.029Z,7.36
2018-03-26T18:29:25.671Z,7.31
2018-03-26T18:31:59.317Z,7.36
2018-03-26T18:34:33.011Z,7.29
2018-03-26T18:37:06.490Z,7.14
2018-03-26T18:39:40.158Z,6.99
2018-03-26T18:42:13.798Z,6.92
2018-03-26T18:44:47.426Z,6.90
2018-03-26T18:47:21.138Z,6.90
2018-03-26T18:49:54.802Z,6.83
2018-03-26T18:52:28.390Z,6.78
2018-03-26T18:55:02.393Z,6.83
2018-03-26T18:57:36.038Z,6.85
2018-03-26T19:00:09.677Z,6.86
2018-03-26T19:02:43.246Z,6.90
2018-03-26T19:05:16.922Z,6.88
2018-03-26T19:07:50.470Z,6.98
2018-03-26T19:10:24.070Z,7.09
2018-03-26T19:12:57.614Z,7.15
2018-03-26T19:15:31.409Z,7.16
2018-03-26T19:18:05.010Z,7.10
2018-03-26T19:20:38.637Z,7.08
2018-03-26T19:23:12.262Z,7.06
2018-03-26T19:25:45.938Z,7.08
2018-03-26T19:28:19.574Z,7.04
2018-03-26T19:30:53.266Z,7.01
2018-03-26T19:33:26.946Z,7.00
2018-03-26T19:36:14.226Z,6.95
2018-03-26T19:38:47.990Z,7.01
2018-03-26T19:41:21.681Z,7.05
2018-03-26T19:43:55.294Z,7.06
2018-03-26T19:46:28.930Z,7.09
2018-03-26T19:49:02.445Z,7.08
2018-03-26T19:51:36.076Z,7.02
2018-03-26T19:54:09.667Z,6.94
2018-03-26T19:56:43.329Z,6.88
2018-03-26T19:59:16.930Z,6.84
2018-03-26T20:01:50.550Z,6.68
2018-03-26T20:04:24.133Z,6.58
2018-03-26T20:06:57.762Z,6.56
2018-03-26T20:09:31.419Z,6.57
2018-03-26T20:12:05.168Z,6.54
2018-03-26T20:14:39.015Z,6.48
2018-03-26T20:17:13.640Z,6.44
2018-03-26T20:19:47.373Z,6.45
2018-03-26T20:22:20.906Z,6.41
2018-03-26T20:24:54.505Z,6.30
2018-03-26T20:27:28.306Z,6.31
2018-03-26T20:30:01.960Z,6.30
2018-03-26T20:32:35.578Z,6.28
2018-03-26T20:35:09.131Z,6.25
2018-03-26T20:37:42.903Z,6.22
2018-03-26T20:40:16.539Z,6.12
2018-03-26T20:42:50.106Z,6.07
2018-03-26T20:45:23.831Z,6.10
2018-03-26T20:47:57.510Z,6.20
2018-03-26T20:50:31.047Z,6.12
2018-03-26T20:53:04.698Z,6.20
2018-03-26T20:55:38.302Z,6.01
2018-03-26T20:58:11.895Z,5.90
2018-03-26T21:00:45.544Z,5.69
2018-03-26T21:03:19.122Z,5.57
2018-03-26T21:05:52.686Z,5.55
2018-03-26T21:08:26.327Z,5.38
2018-03-26T21:10:59.980Z,5.36
2018-03-26T21:13:33.510Z,5.33
2018-03-26T21:16:07.199Z,5.33
2018-03-26T21:18:40.763Z,5.29
2018-03-26T21:21:14.499Z,5.22
2018-03-26T21:23:48.299Z,5.14
2018-03-26T21:26:21.942Z,5.14
2018-03-26T21:28:55.514Z,5.12
2018-03-26T21:31:29.181Z,5.10
2018-03-26T21:34:02.990Z,5.13
2018-03-26T21:36:36.543Z,5.13
2018-03-26T21:39:10.114Z,5.22
2018-03-26T21:41:43.672Z,5.27
2018-03-26T21:44:17.296Z,5.37
2018-03-26T21:46:50.926Z,5.42
2018-03-26T21:49:24.576Z,5.45
2018-03-26T21:51:58.127Z,5.52
2018-03-26T21:54:31.788Z,5.52
2018-03-26T21:57:05.418Z,5.47
2018-03-26T21:59:39.050Z,5.42
2018-03-26T22:02:12.642Z,5.38
2018-03-26T22:04:46.395Z,5.28
2018-03-26T22:07:20.098Z,5.09
2018-03-26T22:09:53.676Z,5.01
2018-03-26T22:12:27.361Z,4.89
2018-03-26T22:15:01.242Z,4.74
2018-03-26T22:17:34.883Z,4.62
2018-03-26T22:20:08.503Z,4.55
2018-03-26T22:22:42.123Z,4.49
2018-03-26T22:25:15.798Z,4.45
2018-03-26T22:27:49.429Z,4.35
2018-03-26T22:30:23.095Z,4.25
2018-03-26T22:32:56.842Z,4.22
2018-03-26T22:35:30.424Z,4.13
2018-03-26T22:38:03.951Z,4.05
2018-03-26T22:40:37.451Z,4.00
2018-03-26T22:43:11.066Z,3.98
2018-03-26T22:45:44.694Z,3.95
2018-03-26T22:48:18.335Z,3.94
2018-03-26T22:50:52.047Z,3.89
2018-03-26T22:53:25.630Z,3.92
2018-03-26T22:55:59.169Z,3.94
2018-03-26T22:58:32.715Z,3.92
2018-03-26T23:01:06.442Z,3.80
2018-03-26T23:03:40.021Z,3.82
2018-03-26T23:06:13.646Z,3.78
2018-03-26T23:08:47.173Z,3.74
2018-03-26T23:11:20.733Z,3.77
2018-03-26T23:13:54.395Z,3.71
2018-03-26T23:16:28.054Z,3.70
2018-03-26T23:19:01.640Z,3.67
2018-03-26T23:21:35.337Z,3.65
2018-03-26T23:24:08.842Z,3.67
2018-03-26T23:26:42.559Z,3.71
2018-03-26T23:29:16.117Z,3.79
2018-03-26T23:31:49.733Z,4.00
2018-03-26T23:34:23.277Z,4.14
2018-03-26T23:43:09.847Z,4.18
2018-03-26T23:45:43.517Z,4.14
2018-03-26T23:48:17.020Z,4.14
2018-03-26T23:50:50.736Z,4.25
2018-03-26T23:53:24.290Z,4.28
2018-03-26T23:55:57.883Z,4.34
2018-03-26T23:58:31.446Z,4.41
